createdAt,value
2018-05-31T00:01:05.824Z,67.70
2018-05-31T00:03:34.088Z,69.20
2018-05-31T00:06:02.382Z,71.20
2018-05-31T00:08:30.640Z,71.90
2018-05-31T00:10:58.901Z,73.40
2018-05-31T00:13:27.328Z,68.70
2018-05-31T00:15:56.349Z,74.60
2018-05-31T00:18:24.701Z,74.40
2018-05-31T00:20:54.129Z,73.40
2018-05-31T00:23:22.381Z,73.40
2018-05-31T00:25:51.401Z,70.60
2018-05-31T00:28:19.684Z,70.70
2018-05-31T00:30:47.929Z,70.00
2018-05-31T00:33:16.957Z,67.90
2018-05-31T00:35:45.228Z,68.00
2018-05-31T00:38:13.473Z,68.80
2018-05-31T00:40:41.720Z,67.80
2018-05-31T00:43:10.393Z,69.80
2018-05-31T00:45:39.021Z,69.80
2018-05-31T00:48:08.045Z,72.10
2018-05-31T00:50:36.748Z,72.10
2018-05-31T00:53:04.999Z,76.50
2018-05-31T00:55:45.022Z,75.60
2018-05-31T00:58:13.288Z,73.70
2018-05-31T01:00:41.535Z,71.80
2018-05-31T01:03:10.317Z,74.90
2018-05-31T01:05:38.650Z,74.70
2018-05-31T01:08:07.668Z,75.90
2018-05-31T01:10:35.940Z,75.90
2018-05-31T01:13:04.196Z,73.90
2018-05-31T01:15:32.448Z,76.90
2018-05-31T01:18:00.732Z,76.40
2018-05-31T01:20:29.199Z,74.30
2018-05-31T01:22:57.444Z,78.00
2018-05-31T01:25:26.036Z,77.70
2018-05-31T01:27:54.285Z,78.50
2018-05-31T01:30:22.580Z,75.70
2018-05-31T01:32:50.856Z,76.60
2018-05-31T01:35:19.111Z,77.90
2018-05-31T01:37:47.352Z,78.70
2018-05-31T01:40:16.401Z,81.80
2018-05-31T01:42:44.656Z,81.90
2018-05-31T01:45:12.899Z,79.60
2018-05-31T01:47:41.757Z,81.80
2018-05-31T01:50:10.038Z,81.40
2018-05-31T01:52:38.292Z,78.50
2018-05-31T01:55:06.568Z,78.50
2018-05-31T01:57:34.929Z,91.40
2018-05-31T02:00:03.188Z,85.00
2018-05-31T02:02:31.469Z,82.90
2018-05-31T02:04:59.721Z,80.90
2018-05-31T02:07:27.969Z,82.40
2018-05-31T02:09:56.559Z,82.50
2018-05-31T02:12:24.808Z,82.40
2018-05-31T02:14:53.066Z,85.30
2018-05-31T02:17:22.260Z,84.70
2018-05-31T02:19:50.537Z,84.80
2018-05-31T02:22:18.813Z,81.00
2018-05-31T02:24:47.877Z,81.80
2018-05-31T02:27:16.892Z,80.00
2018-05-31T02:29:45.144Z,80.00
2018-05-31T02:32:13.521Z,83.60
2018-05-31T02:34:41.780Z,82.00
2018-05-31T02:37:10.032Z,87.50
2018-05-31T02:39:38.313Z,85.40
2018-05-31T02:42:06.576Z,83.10
2018-05-31T02:44:34.828Z,86.30
2018-05-31T02:47:03.112Z,87.20
2018-05-31T02:49:32.244Z,83.70
2018-05-31T02:52:00.504Z,83.60
2018-05-31T02:54:28.913Z,86.00
2018-05-31T02:56:57.163Z,82.50
2018-05-31T02:59:25.412Z,84.70
2018-05-31T03:01:53.688Z,88.60
2018-05-31T03:04:22.708Z,87.90
2018-05-31T03:06:50.969Z,87.80
2018-05-31T03:09:19.254Z,86.00
2018-05-31T03:11:47.528Z,85.50
2018-05-31T03:14:15.785Z,90.30
2018-05-31T03:16:44.641Z,90.60
2018-05-31T03:19:12.954Z,90.60
2018-05-31T03:21:41.969Z,92.00
2018-05-31T03:24:10.245Z,91.70
2018-05-31T03:26:38.508Z,92.00
2018-05-31T03:29:06.765Z,91.80
2018-05-31T03:31:35.046Z,91.40
2018-05-31T03:34:03.297Z,92.10
2018-05-31T03:36:31.547Z,92.60
2018-05-31T03:39:00.350Z,92.30
2018-05-31T03:41:28.600Z,92.50
2018-05-31T03:43:56.851Z,90.10
2018-05-31T03:46:25.137Z,93.10
2018-05-31T03:48:54.157Z,91.70
2018-05-31T03:51:22.555Z,91.60
2018-05-31T03:53:50.829Z,90.50
2018-05-31T03:56:19.265Z,93.20
2018-05-31T03:58:48.287Z,92.70
2018-05-31T04:01:16.988Z,92.70
2018-05-31T04:03:45.247Z,94.00
2018-05-31T04:06:13.500Z,93.60
2018-05-31T04:08:42.550Z,92.80
2018-05-31T04:11:10.804Z,92.80
2018-05-31T04:13:39.049Z,92.70
2018-05-31T04:16:07.321Z,92.80
2018-05-31T04:18:35.564Z,93.70
2018-05-31T04:21:03.830Z,91.10
2018-05-31T04:23:32.415Z,91.40
2018-05-31T04:26:00.666Z,94.80
2018-05-31T04:28:28.932Z,93.10
2018-05-31T04:30:57.216Z,92.40
2018-05-31T04:33:25.568Z,91.60
2018-05-31T04:35:54.589Z,91.00
2018-05-31T04:38:22.864Z,91.00
2018-05-31T04:40:51.117Z,90.70
2018-05-31T04:43:19.392Z,90.70
2018-05-31T04:45:48.749Z,91.40
2018-05-31T04:48:16.996Z,91.40
2018-05-31T04:50:45.256Z,91.30
2018-05-31T04:53:13.965Z,92.20
2018-05-31T04:55:42.256Z,91.80
2018-05-31T04:58:10.461Z,91.10
2018-05-31T05:00:38.738Z,90.90
2018-05-31T05:03:06.994Z,90.90
2018-05-31T05:05:35.246Z,91.60
2018-05-31T05:08:03.773Z,90.60
2018-05-31T05:10:32.033Z,91.00
2018-05-31T05:13:00.286Z,91.30
2018-05-31T05:15:28.653Z,90.90
2018-05-31T05:17:56.905Z,90.50
2018-05-31T05:20:25.156Z,90.00
2018-05-31T05:22:54.209Z,90.50
2018-05-31T05:25:22.473Z,90.50
2018-05-31T05:27:50.729Z,90.20
2018-05-31T05:30:19.196Z,89.60
2018-05-31T05:32:48.224Z,89.40
2018-05-31T05:35:16.479Z,89.20
2018-05-31T05:37:44.764Z,89.10
2018-05-31T05:40:13.008Z,88.80
2018-05-31T05:42:41.260Z,90.50
2018-05-31T05:45:09.540Z,88.80
2018-05-31T05:47:37.796Z,88.60
2018-05-31T05:50:06.080Z,88.90
2018-05-31T05:52:34.655Z,88.80
2018-05-31T05:55:03.308Z,89.40
2018-05-31T05:57:32.336Z,87.20
2018-05-31T06:00:00.626Z,87.00
2018-05-31T06:02:28.884Z,87.40
2018-05-31T06:04:57.160Z,87.60
2018-05-31T06:07:25.445Z,86.70
2018-05-31T06:09:53.716Z,85.80
2018-05-31T06:12:21.968Z,85.40
2018-05-31T06:14:50.704Z,85.90
2018-05-31T06:17:19.001Z,85.00
2018-05-31T06:19:47.274Z,84.50
2018-05-31T06:22:15.628Z,84.40
2018-05-31T06:24:43.885Z,84.90
2018-05-31T06:27:12.157Z,84.60
2018-05-31T06:29:40.436Z,85.10
2018-05-31T06:32:08.712Z,87.40
2018-05-31T06:34:36.975Z,86.80
2018-05-31T06:37:05.539Z,88.50
2018-05-31T06:39:33.739Z,89.20
2018-05-31T06:42:01.993Z,89.50
2018-05-31T06:44:31.032Z,89.30
2018-05-31T06:46:59.288Z,89.30
2018-05-31T06:49:27.540Z,90.00
2018-05-31T06:51:55.823Z,88.70
2018-05-31T06:54:24.929Z,86.50
2018-05-31T06:56:53.628Z,86.50
2018-05-31T06:59:22.437Z,87.50
2018-05-31T07:01:50.691Z,88.10
2018-05-31T07:04:18.949Z,87.20
2018-05-31T07:06:47.255Z,85.90
2018-05-31T07:09:15.504Z,86.30
2018-05-31T07:11:43.760Z,88.30
2018-05-31T07:14:12.048Z,87.40
2018-05-31T07:16:41.067Z,86.80
2018-05-31T07:19:09.320Z,86.60
2018-05-31T07:21:38.085Z,85.60
2018-05-31T07:24:06.344Z,86.30
2018-05-31T07:26:34.605Z,85.90
2018-05-31T07:29:02.909Z,86.40
2018-05-31T07:31:31.152Z,86.20
2018-05-31T07:33:59.408Z,85.50
2018-05-31T07:36:27.692Z,85.70
2018-05-31T07:38:55.949Z,85.10
2018-05-31T07:41:24.212Z,85.50
2018-05-31T07:43:53.560Z,84.00
2018-05-31T07:46:21.912Z,83.90
2018-05-31T07:48:50.172Z,84.30
2018-05-31T07:51:18.504Z,83.90
2018-05-31T07:53:46.724Z,83.60
2018-05-31T07:56:15.749Z,83.20
2018-05-31T07:58:44.358Z,83.10
2018-05-31T08:01:12.608Z,81.70
2018-05-31T08:03:40.869Z,81.40
2018-05-31T08:06:10.097Z,80.70
2018-05-31T08:08:38.361Z,80.70
2018-05-31T08:11:06.617Z,80.40
2018-05-31T08:13:34.916Z,80.40
2018-05-31T08:16:03.168Z,80.20
2018-05-31T08:18:32.189Z,81.00
2018-05-31T08:21:00.477Z,81.00
2018-05-31T08:23:28.733Z,80.60
2018-05-31T08:25:56.993Z,80.60
2018-05-31T08:28:25.618Z,80.40
2018-05-31T08:30:53.874Z,80.40
2018-05-31T08:33:22.137Z,78.70
2018-05-31T08:35:50.420Z,78.40
2018-05-31T08:38:19.725Z,76.90
2018-05-31T08:40:47.977Z,76.80
2018-05-31T08:43:16.252Z,76.00
2018-05-31T08:45:45.276Z,74.20
2018-05-31T08:48:13.569Z,74.00
2018-05-31T08:50:42.132Z,72.60
2018-05-31T08:53:10.384Z,72.40
2018-05-31T08:55:39.405Z,71.30
2018-05-31T08:58:07.716Z,71.20
2018-05-31T09:00:36.349Z,71.60
2018-05-31T09:03:05.196Z,72.10
2018-05-31T09:05:33.491Z,70.60
2018-05-31T09:08:01.753Z,71.00
2018-05-31T09:10:30.015Z,70.90
2018-05-31T09:12:58.604Z,71.60
2018-05-31T09:15:26.868Z,71.40
2018-05-31T09:17:55.116Z,71.00
2018-05-31T09:20:23.391Z,70.80
2018-05-31T09:22:51.655Z,71.00
2018-05-31T09:25:19.912Z,70.30
2018-05-31T09:27:48.208Z,70.30
2018-05-31T09:30:17.236Z,70.20
2018-05-31T09:32:45.746Z,70.10
2018-05-31T09:35:14.732Z,69.80
2018-05-31T09:37:42.975Z,69.40
2018-05-31T09:40:11.229Z,68.90
2018-05-31T09:42:39.504Z,69.00
2018-05-31T09:45:08.519Z,69.00
2018-05-31T09:47:36.777Z,69.00
2018-05-31T09:50:05.853Z,68.10
2018-05-31T09:52:34.100Z,68.00
2018-05-31T09:55:02.350Z,67.50
2018-05-31T09:57:30.948Z,67.50
2018-05-31T09:59:59.207Z,67.50
2018-05-31T10:02:27.977Z,66.70
2018-05-31T10:04:57.030Z,66.20
2018-05-31T10:07:25.270Z,66.20
2018-05-31T10:09:53.545Z,66.50
2018-05-31T10:12:21.813Z,63.90
2018-05-31T10:14:50.069Z,65.00
2018-05-31T10:17:18.321Z,64.00
2018-05-31T10:19:47.689Z,63.70
2018-05-31T10:22:15.929Z,64.00
2018-05-31T10:24:44.196Z,63.50
2018-05-31T10:27:12.456Z,62.50
2018-05-31T10:29:40.712Z,62.50
2018-05-31T10:32:08.964Z,61.10
2018-05-31T10:34:37.260Z,59.80
2018-05-31T10:37:05.504Z,59.70
2018-05-31T10:39:33.761Z,60.60
2018-05-31T10:42:03.004Z,60.90
2018-05-31T10:44:31.256Z,60.80
2018-05-31T10:46:59.509Z,58.50
2018-05-31T10:49:28.546Z,58.50
2018-05-31T10:51:56.788Z,58.50
2018-05-31T10:54:25.028Z,59.00
2018-05-31T10:56:53.309Z,55.50
2018-05-31T10:59:21.592Z,56.20
2018-05-31T11:01:49.980Z,56.50
2018-05-31T11:04:18.718Z,56.50
2018-05-31T11:06:46.968Z,56.30
2018-05-31T11:09:17.436Z,56.80
2018-05-31T11:11:46.310Z,55.40
2018-05-31T11:14:14.831Z,54.70
2018-05-31T11:16:43.305Z,57.60
2018-05-31T11:19:11.709Z,59.30
2018-05-31T11:21:41.928Z,46.90
2018-05-31T11:24:10.173Z,46.70
2018-05-31T11:26:38.677Z,52.80
2018-05-31T11:29:06.926Z,41.60
2018-05-31T11:31:35.177Z,41.20
2018-05-31T11:34:03.548Z,40.30
2018-05-31T11:36:31.868Z,39.70
2018-05-31T11:39:00.120Z,38.90
2018-05-31T11:41:28.396Z,38.90
2018-05-31T11:43:56.652Z,37.90
2018-05-31T11:46:24.904Z,39.50
2018-05-31T11:48:53.545Z,33.00
2018-05-31T11:51:21.793Z,35.10
2018-05-31T11:53:50.218Z,38.70
2018-05-31T11:56:18.506Z,30.60
2018-05-31T11:58:46.755Z,36.30
2018-05-31T12:01:15.048Z,31.30
2018-05-31T12:03:43.384Z,32.50
2018-05-31T12:06:11.587Z,31.00
2018-05-31T12:08:39.887Z,31.00
2018-05-31T12:11:08.213Z,27.90
2018-05-31T12:13:36.461Z,29.40
2018-05-31T12:16:04.769Z,31.60
2018-05-31T12:18:33.280Z,27.10
2018-05-31T12:21:01.511Z,28.90
2018-05-31T12:23:30.520Z,27.60
2018-05-31T12:25:58.917Z,27.60
2018-05-31T12:28:27.164Z,29.80
2018-05-31T12:30:55.412Z,26.60
2018-05-31T12:33:23.744Z,27.40
2018-05-31T12:35:52.034Z,28.00
2018-05-31T12:38:20.263Z,27.70
2018-05-31T12:40:48.712Z,27.80
2018-05-31T12:43:17.172Z,27.60
2018-05-31T12:45:45.422Z,27.10
2018-05-31T12:48:13.725Z,26.50
2018-05-31T12:50:41.940Z,27.30
2018-05-31T12:53:10.390Z,26.20
2018-05-31T12:55:38.931Z,28.40
2018-05-31T12:58:07.177Z,25.00
2018-05-31T13:00:36.192Z,28.40
2018-05-31T13:03:04.853Z,28.40
2018-05-31T13:05:34.175Z,27.70
2018-05-31T13:08:03.523Z,28.60
2018-05-31T13:10:31.809Z,28.50
2018-05-31T13:13:00.187Z,28.50
2018-05-31T13:15:28.436Z,27.80
2018-05-31T13:17:57.958Z,28.40
2018-05-31T13:20:26.250Z,28.80
2018-05-31T13:22:54.625Z,27.40
2018-05-31T13:25:23.033Z,28.10
2018-05-31T13:27:52.088Z,26.40
2018-05-31T13:30:20.312Z,26.40
2018-05-31T13:32:48.802Z,26.90
2018-05-31T13:35:17.808Z,24.80
2018-05-31T13:37:46.057Z,24.70
2018-05-31T13:40:14.892Z,25.90
2018-05-31T13:42:43.148Z,26.60
2018-05-31T13:45:11.577Z,27.30
2018-05-31T13:47:39.849Z,27.70
2018-05-31T13:50:08.219Z,28.60
2018-05-31T13:52:36.465Z,29.60
2018-05-31T13:55:04.841Z,30.60
2018-05-31T13:57:33.093Z,31.20
2018-05-31T14:00:02.491Z,31.70
2018-05-31T14:02:31.849Z,32.00
2018-05-31T14:05:00.096Z,32.40
2018-05-31T14:07:28.353Z,33.50
2018-05-31T14:09:56.628Z,33.70
2018-05-31T14:12:25.649Z,34.10
2018-05-31T14:14:53.893Z,34.10
2018-05-31T14:17:22.377Z,34.00
2018-05-31T14:19:51.396Z,33.90
2018-05-31T14:22:19.652Z,33.90
2018-05-31T14:24:48.101Z,34.80
2018-05-31T14:27:16.528Z,35.80
2018-05-31T14:29:44.783Z,36.80
2018-05-31T14:32:13.064Z,36.40
2018-05-31T14:34:41.369Z,34.60
2018-05-31T14:37:09.604Z,33.80
2018-05-31T14:39:38.255Z,34.00
2018-05-31T14:42:06.498Z,34.70
2018-05-31T14:44:34.736Z,32.10
2018-05-31T14:47:03.576Z,30.80
2018-05-31T14:49:31.821Z,27.30
2018-05-31T14:52:00.275Z,28.60
2018-05-31T14:54:28.546Z,29.50
2018-05-31T14:56:56.795Z,28.40
2018-05-31T14:59:25.042Z,25.90
2018-05-31T15:01:53.320Z,24.40
2018-05-31T15:04:21.581Z,24.80
2018-05-31T15:06:51.769Z,27.00
2018-05-31T15:09:20.092Z,27.90
2018-05-31T15:11:48.333Z,26.90
2018-05-31T15:14:16.586Z,27.00
2018-05-31T15:16:44.923Z,27.70
2018-05-31T15:19:13.119Z,25.90
2018-05-31T15:21:41.424Z,23.80
2018-05-31T15:24:09.696Z,24.30
2018-05-31T15:26:37.934Z,24.30
2018-05-31T15:29:06.172Z,26.10
2018-05-31T15:31:34.488Z,27.40
2018-05-31T15:34:02.899Z,28.20
2018-05-31T15:36:31.136Z,28.80
2018-05-31T15:38:59.400Z,29.40
2018-05-31T15:41:27.690Z,30.00
2018-05-31T15:43:55.919Z,32.10
2018-05-31T15:46:24.328Z,33.00
2018-05-31T15:48:53.342Z,34.70
2018-05-31T15:51:23.816Z,34.70
2018-05-31T15:53:52.592Z,36.20
2018-05-31T15:56:23.137Z,36.80
2018-05-31T15:58:51.428Z,37.00
2018-05-31T16:01:19.817Z,36.90
2018-05-31T16:03:50.154Z,37.30
2018-05-31T16:06:19.368Z,37.80
2018-05-31T16:08:48.061Z,37.80
2018-05-31T16:11:16.303Z,38.60
2018-05-31T16:13:44.769Z,38.70
2018-05-31T16:16:13.269Z,39.20
2018-05-31T16:18:41.652Z,40.20
2018-05-31T16:21:09.893Z,40.80
2018-05-31T16:23:38.174Z,40.80
2018-05-31T16:26:06.420Z,41.40
2018-05-31T16:28:35.682Z,42.50
2018-05-31T16:31:03.976Z,41.20
2018-05-31T16:33:32.292Z,41.70
2018-05-31T16:36:00.540Z,42.70
2018-05-31T16:38:28.888Z,43.00
2018-05-31T16:40:57.927Z,45.20
2018-05-31T16:43:26.241Z,45.20
2018-05-31T16:45:54.657Z,45.50
2018-05-31T16:48:23.657Z,45.60
2018-05-31T16:50:52.296Z,45.50
2018-05-31T16:53:20.699Z,46.20
2018-05-31T16:55:50.894Z,46.20
2018-05-31T16:58:21.184Z,46.20
2018-05-31T17:00:49.512Z,46.20
2018-05-31T17:03:17.888Z,46.40
2018-05-31T17:05:46.264Z,46.60
2018-05-31T17:08:16.481Z,47.50
2018-05-31T17:10:47.024Z,47.20
2018-05-31T17:13:17.225Z,46.90
2018-05-31T17:15:45.613Z,46.90
2018-05-31T17:18:14.081Z,47.30
2018-05-31T17:20:42.347Z,48.20
2018-05-31T17:23:10.811Z,48.10
2018-05-31T17:25:39.820Z,47.90
2018-05-31T17:28:10.298Z,47.90
2018-05-31T17:30:40.828Z,48.70
2018-05-31T17:33:11.093Z,48.70
2018-05-31T17:35:39.391Z,48.60
2018-05-31T17:38:08.778Z,48.70
2018-05-31T17:40:37.230Z,48.00
2018-05-31T17:43:06.793Z,49.30
2018-05-31T17:45:35.085Z,48.10
2018-05-31T17:48:04.393Z,48.30
2018-05-31T17:50:33.423Z,49.00
2018-05-31T17:53:02.112Z,49.00
2018-05-31T17:55:31.379Z,49.10
2018-05-31T17:58:00.636Z,48.90
2018-05-31T18:00:29.103Z,48.90
2018-05-31T18:02:58.364Z,49.00
2018-05-31T18:05:26.941Z,48.70
2018-05-31T18:07:55.733Z,50.10
2018-05-31T18:10:24.066Z,50.50
2018-05-31T18:12:52.453Z,51.00
2018-05-31T18:15:22.745Z,51.60
2018-05-31T18:17:50.988Z,51.50
2018-05-31T18:20:19.454Z,52.10
2018-05-31T18:22:50.037Z,52.20
2018-05-31T18:25:18.351Z,52.10
2018-05-31T18:27:46.606Z,51.30
2018-05-31T18:30:14.957Z,53.60
2018-05-31T18:32:43.210Z,52.40
2018-05-31T18:35:12.224Z,55.40
2018-05-31T18:37:40.573Z,55.30
2018-05-31T18:40:11.990Z,55.10
2018-05-31T18:42:43.760Z,56.20
2018-05-31T18:45:15.198Z,57.10
2018-05-31T18:47:43.577Z,58.20
2018-05-31T18:50:11.977Z,57.00
2018-05-31T18:52:42.483Z,56.50
2018-05-31T18:55:11.782Z,56.40
2018-05-31T18:57:40.305Z,56.80
2018-05-31T19:00:09.464Z,57.10
2018-05-31T19:02:38.764Z,57.10
2018-05-31T19:05:07.394Z,57.60
2018-05-31T19:07:35.884Z,60.00
2018-05-31T19:10:07.333Z,59.20
2018-05-31T19:12:42.384Z,60.30
2018-05-31T19:15:10.792Z,60.30
2018-05-31T19:17:40.101Z,59.90
2018-05-31T19:20:08.852Z,59.90
2018-05-31T19:22:37.250Z,59.80
2018-05-31T19:25:11.172Z,59.70
2018-05-31T19:27:40.613Z,59.00
2018-05-31T19:30:14.750Z,58.90
2018-05-31T19:32:43.011Z,58.90
2018-05-31T19:35:18.196Z,59.40
2018-05-31T19:37:46.796Z,59.30
2018-05-31T19:40:15.336Z,59.80
2018-05-31T19:42:49.336Z,61.90
2018-05-31T19:45:17.752Z,59.10
2018-05-31T19:47:47.065Z,58.90
2018-05-31T19:50:17.377Z,58.80
2018-05-31T19:52:52.311Z,59.40
2018-05-31T19:55:20.630Z,59.70
2018-05-31T19:57:54.632Z,58.70
2018-05-31T20:00:28.852Z,58.70
2018-05-31T20:03:02.800Z,58.30
2018-05-31T20:05:31.074Z,58.20
2018-05-31T20:07:59.318Z,57.90
2018-05-31T20:10:28.340Z,57.60
2018-05-31T20:12:58.013Z,57.20
2018-05-31T20:15:27.184Z,57.20
2018-05-31T20:17:55.567Z,57.20
2018-05-31T20:20:23.841Z,57.40
2018-05-31T20:22:52.326Z,57.10
2018-05-31T20:25:20.573Z,57.00
2018-05-31T20:27:48.841Z,56.90
2018-05-31T20:30:17.092Z,57.20
2018-05-31T20:32:45.337Z,57.10
2018-05-31T20:35:13.681Z,58.00
2018-05-31T20:37:42.288Z,57.50
2018-05-31T20:40:10.668Z,56.90
2018-05-31T20:42:39.101Z,56.70
2018-05-31T20:45:08.101Z,56.30
2018-05-31T20:47:36.432Z,56.30
2018-05-31T20:50:04.893Z,56.20
2018-05-31T20:52:33.156Z,56.40
2018-05-31T20:55:01.580Z,56.00
2018-05-31T20:57:30.944Z,56.40
2018-05-31T20:59:59.290Z,56.30
2018-05-31T21:02:27.502Z,55.70
2018-05-31T21:04:55.756Z,55.60
2018-05-31T21:07:24.016Z,55.60
2018-05-31T21:09:52.453Z,55.70
2018-05-31T21:12:21.859Z,56.00
2018-05-31T21:14:50.160Z,56.30
2018-05-31T21:17:19.181Z,57.20
2018-05-31T21:19:48.200Z,57.10
2018-05-31T21:22:16.445Z,56.80
2018-05-31T21:24:44.885Z,56.50
2018-05-31T21:27:13.278Z,56.80
2018-05-31T21:29:42.296Z,56.60
2018-05-31T21:32:10.677Z,56.50
2018-05-31T21:34:39.054Z,56.80
2018-05-31T21:37:07.386Z,56.70
2018-05-31T21:39:35.784Z,56.60
2018-05-31T21:42:05.153Z,57.00
2018-05-31T21:44:33.453Z,56.90
2018-05-31T21:47:01.702Z,56.80
2018-05-31T21:49:30.009Z,56.60
2018-05-31T21:51:58.255Z,56.20
2018-05-31T21:54:30.651Z,56.20
2018-05-31T21:56:59.054Z,56.40
2018-05-31T21:59:29.264Z,57.50
2018-05-31T22:01:57.512Z,57.50
2018-05-31T22:04:25.972Z,56.70
2018-05-31T22:06:54.216Z,56.80
2018-05-31T22:09:23.236Z,57.30
2018-05-31T22:11:51.637Z,57.30
2018-05-31T22:14:20.752Z,57.00
2018-05-31T22:16:49.004Z,56.80
2018-05-31T22:19:19.383Z,56.80
2018-05-31T22:21:48.388Z,57.30
2018-05-31T22:24:16.735Z,57.20
2018-05-31T22:26:45.189Z,57.10
2018-05-31T22:29:15.624Z,57.30
2018-05-31T22:31:44.008Z,57.80
2018-05-31T22:34:12.313Z,57.70
2018-05-31T22:36:41.638Z,58.00
2018-05-31T22:39:09.849Z,57.80
2018-05-31T22:41:38.157Z,57.80
2018-05-31T22:44:08.399Z,58.20
2018-05-31T22:46:37.419Z,58.20
2018-05-31T22:49:05.825Z,58.20
2018-05-31T22:51:34.788Z,58.20
2018-05-31T22:54:03.085Z,57.80
2018-05-31T22:56:31.308Z,58.10
2018-05-31T22:59:00.324Z,58.20
2018-05-31T23:01:29.800Z,58.10
2018-05-31T23:03:58.844Z,58.60
2018-05-31T23:06:27.156Z,58.60
2018-05-31T23:08:55.544Z,58.70
2018-05-31T23:11:23.976Z,58.60
2018-05-31T23:13:52.301Z,59.00
2018-05-31T23:16:20.664Z,58.90
2018-05-31T23:18:48.940Z,59.50
2018-05-31T23:21:17.315Z,59.10
2018-05-31T23:23:45.565Z,59.40
2018-05-31T23:26:13.839Z,59.40
2018-05-31T23:28:42.081Z,60.70
2018-05-31T23:31:11.101Z,59.60
2018-05-31T23:33:39.480Z,59.60
2018-05-31T23:36:07.834Z,59.90
2018-05-31T23:38:36.089Z,61.70
2018-05-31T23:41:04.364Z,63.10
2018-05-31T23:43:32.617Z,62.90
2018-05-31T23:46:01.833Z,62.60
2018-05-31T23:48:30.092Z,63.30
2018-05-31T23:50:58.332Z,63.10
2018-05-31T23:53:26.662Z,62.80
2018-05-31T23:55:55.113Z,64.50
2018-05-31T23:58:23.416Z,64.10
